sensor_id;sensor_type;location;lat;lon;timestamp;P1;durP1;ratioP1;P2;durP2;ratioP2
6517;SDS011;3292;48.944;9.240;2023-05-02T00:02:16;9.90;;;8.90;;
6517;SDS011;3292;48.944;9.240;2023-05-02T00:04:43;9.33;;;8.50;;
6517;SDS011;3292;48.944;9.240;2023-05-02T00:07:10;9.50;;;8.63;;
6517;SDS011;3292;48.944;9.240;2023-05-02T00:09:37;9.20;;;8.33;;
6517;SDS011;3292;48.944;9.240;2023-05-02T00:12:04;9.53;;;8.60;;
6517;SDS011;3292;48.944;9.240;2023-05-02T00:14:31;9.83;;;8.90;;
6517;SDS011;3292;48.944;9.240;2023-05-02T00:16:58;9.97;;;9.03;;
6517;SDS011;3292;48.944;9.240;2023-05-02T00:19:26;12.00;;;10.90;;
6517;SDS011;3292;48.944;9.240;2023-05-02T00:21:53;11.03;;;9.93;;
6517;SDS011;3292;48.944;9.240;2023-05-02T00:24:20;10.90;;;9.90;;
6517;SDS011;3292;48.944;9.240;2023-05-02T00:26:46;10.97;;;9.97;;
6517;SDS011;3292;48.944;9.240;2023-05-02T00:29:13;10.80;;;9.80;;
6517;SDS011;3292;48.944;9.240;2023-05-02T00:31:40;9.97;;;9.07;;
6517;SDS011;3292;48.944;9.240;2023-05-02T00:34:07;10.07;;;9.07;;
6517;SDS011;3292;48.944;9.240;2023-05-02T00:36:35;10.30;;;9.40;;
6517;SDS011;3292;48.944;9.240;2023-05-02T00:39:02;10.90;;;9.73;;
6517;SDS011;3292;48.944;9.240;2023-05-02T00:41:29;9.70;;;8.80;;
6517;SDS011;3292;48.944;9.240;2023-05-02T00:43:56;9.13;;;8.23;;
6517;SDS011;3292;48.944;9.240;2023-05-02T00:46:23;10.80;;;9.80;;
6517;SDS011;3292;48.944;9.240;2023-05-02T00:48:50;10.20;;;9.30;;
6517;SDS011;3292;48.944;9.240;2023-05-02T00:51:17;10.60;;;9.50;;
6517;SDS011;3292;48.944;9.240;2023-05-02T00:53:45;10.37;;;9.10;;
6517;SDS011;3292;48.944;9.240;2023-05-02T00:56:13;11.10;;;10.10;;
6517;SDS011;3292;48.944;9.240;2023-05-02T00:58:40;9.93;;;8.93;;
6517;SDS011;3292;48.944;9.240;2023-05-02T01:01:09;9.97;;;9.07;;
6517;SDS011;3292;48.944;9.240;2023-05-02T01:03:45;10.03;;;9.10;;
6517;SDS011;3292;48.944;9.240;2023-05-02T01:06:27;10.57;;;9.57;;
6517;SDS011;3292;48.944;9.240;2023-05-02T01:09:05;9.83;;;8.93;;
6517;SDS011;3292;48.944;9.240;2023-05-02T01:11:43;10.33;;;9.40;;
6517;SDS011;3292;48.944;9.240;2023-05-02T01:14:13;10.37;;;9.37;;
6517;SDS011;3292;48.944;9.240;2023-05-02T01:16:40;10.37;;;9.03;;
6517;SDS011;3292;48.944;9.240;2023-05-02T01:19:15;10.63;;;9.60;;
6517;SDS011;3292;48.944;9.240;2023-05-02T01:21:50;10.93;;;9.37;;
6517;SDS011;3292;48.944;9.240;2023-05-02T01:24:21;11.47;;;9.70;;
6517;SDS011;3292;48.944;9.240;2023-05-02T01:26:55;11.33;;;10.13;;
6517;SDS011;3292;48.944;9.240;2023-05-02T01:29:31;10.73;;;9.63;;
6517;SDS011;3292;48.944;9.240;2023-05-02T01:31:59;10.10;;;9.17;;
6517;SDS011;3292;48.944;9.240;2023-05-02T01:34:28;10.33;;;9.43;;
6517;SDS011;3292;48.944;9.240;2023-05-02T01:36:55;11.00;;;9.33;;
6517;SDS011;3292;48.944;9.240;2023-05-02T01:39:24;9.80;;;8.90;;
6517;SDS011;3292;48.944;9.240;2023-05-02T01:41:52;10.00;;;9.10;;
6517;SDS011;3292;48.944;9.240;2023-05-02T01:44:22;11.57;;;10.37;;
6517;SDS011;3292;48.944;9.240;2023-05-02T01:46:51;9.80;;;8.97;;
6517;SDS011;3292;48.944;9.240;2023-05-02T01:49:20;10.43;;;9.43;;
6517;SDS011;3292;48.944;9.240;2023-05-02T01:51:49;11.37;;;10.20;;
6517;SDS011;3292;48.944;9.240;2023-05-02T01:54:17;10.90;;;9.90;;
6517;SDS011;3292;48.944;9.240;2023-05-02T01:56:48;12.70;;;9.93;;
6517;SDS011;3292;48.944;9.240;2023-05-02T01:59:16;11.97;;;10.80;;
6517;SDS011;3292;48.944;9.240;2023-05-02T02:01:45;11.00;;;9.80;;
6517;SDS011;3292;48.944;9.240;2023-05-02T02:04:14;12.07;;;10.20;;
6517;SDS011;3292;48.944;9.240;2023-05-02T02:06:44;10.80;;;9.80;;
6517;SDS011;3292;48.944;9.240;2023-05-02T02:09:13;11.53;;;10.43;;
6517;SDS011;3292;48.944;9.240;2023-05-02T02:11:42;10.53;;;9.63;;
6517;SDS011;3292;48.944;9.240;2023-05-02T02:14:13;11.57;;;10.47;;
6517;SDS011;3292;48.944;9.240;2023-05-02T02:16:44;11.83;;;10.63;;
6517;SDS011;3292;48.944;9.240;2023-05-02T02:19:12;12.17;;;10.97;;
6517;SDS011;3292;48.944;9.240;2023-05-02T02:21:42;11.90;;;10.80;;
6517;SDS011;3292;48.944;9.240;2023-05-02T02:24:12;11.83;;;10.63;;
6517;SDS011;3292;48.944;9.240;2023-05-02T02:26:40;11.10;;;10.10;;
6517;SDS011;3292;48.944;9.240;2023-05-02T02:29:07;11.33;;;10.23;;
6517;SDS011;3292;48.944;9.240;2023-05-02T02:31:34;12.47;;;11.17;;
6517;SDS011;3292;48.944;9.240;2023-05-02T02:34:03;10.83;;;9.83;;
6517;SDS011;3292;48.944;9.240;2023-05-02T02:36:32;11.63;;;10.53;;
6517;SDS011;3292;48.944;9.240;2023-05-02T02:39:07;10.50;;;9.50;;
6517;SDS011;3292;48.944;9.240;2023-05-02T02:41:41;11.90;;;10.70;;
6517;SDS011;3292;48.944;9.240;2023-05-02T02:44:17;12.37;;;11.17;;
6517;SDS011;3292;48.944;9.240;2023-05-02T02:46:56;11.63;;;10.53;;
6517;SDS011;3292;48.944;9.240;2023-05-02T02:49:31;11.87;;;10.77;;
6517;SDS011;3292;48.944;9.240;2023-05-02T02:52:04;12.20;;;11.10;;
6517;SDS011;3292;48.944;9.240;2023-05-02T02:54:38;11.87;;;10.77;;
6517;SDS011;3292;48.944;9.240;2023-05-02T02:57:13;12.63;;;11.33;;
6517;SDS011;3292;48.944;9.240;2023-05-02T02:59:45;12.77;;;11.17;;
6517;SDS011;3292;48.944;9.240;2023-05-02T03:02:21;12.67;;;11.40;;
6517;SDS011;3292;48.944;9.240;2023-05-02T03:04:50;12.37;;;10.97;;
6517;SDS011;3292;48.944;9.240;2023-05-02T03:07:19;12.50;;;11.30;;
6517;SDS011;3292;48.944;9.240;2023-05-02T03:09:48;12.60;;;11.40;;
6517;SDS011;3292;48.944;9.240;2023-05-02T03:12:15;12.80;;;11.37;;
6517;SDS011;3292;48.944;9.240;2023-05-02T03:14:41;12.93;;;11.63;;
6517;SDS011;3292;48.944;9.240;2023-05-02T03:17:09;13.97;;;12.77;;
6517;SDS011;3292;48.944;9.240;2023-05-02T03:19:35;13.93;;;12.00;;
6517;SDS011;3292;48.944;9.240;2023-05-02T03:22:02;13.63;;;12.43;;
6517;SDS011;3292;48.944;9.240;2023-05-02T03:24:29;13.40;;;12.03;;
6517;SDS011;3292;48.944;9.240;2023-05-02T03:26:58;12.57;;;11.37;;
6517;SDS011;3292;48.944;9.240;2023-05-02T03:29:25;12.10;;;11.00;;
6517;SDS011;3292;48.944;9.240;2023-05-02T03:31:52;12.40;;;11.10;;
6517;SDS011;3292;48.944;9.240;2023-05-02T03:34:19;12.23;;;11.13;;
6517;SDS011;3292;48.944;9.240;2023-05-02T03:36:46;11.63;;;10.50;;
6517;SDS011;3292;48.944;9.240;2023-05-02T03:39:14;12.10;;;11.00;;
6517;SDS011;3292;48.944;9.240;2023-05-02T03:41:40;12.87;;;11.57;;
6517;SDS011;3292;48.944;9.240;2023-05-02T03:44:09;11.43;;;10.33;;
6517;SDS011;3292;48.944;9.240;2023-05-02T03:46:36;11.40;;;10.40;;
6517;SDS011;3292;48.944;9.240;2023-05-02T03:49:02;11.57;;;10.33;;
6517;SDS011;3292;48.944;9.240;2023-05-02T03:51:29;10.73;;;9.73;;
6517;SDS011;3292;48.944;9.240;2023-05-02T03:53:57;11.53;;;10.43;;
6517;SDS011;3292;48.944;9.240;2023-05-02T03:56:25;11.10;;;10.10;;
6517;SDS011;3292;48.944;9.240;2023-05-02T03:58:52;11.47;;;10.37;;
6517;SDS011;3292;48.944;9.240;2023-05-02T04:01:20;11.77;;;9.80;;
6517;SDS011;3292;48.944;9.240;2023-05-02T04:03:47;11.20;;;10.20;;
6517;SDS011;3292;48.944;9.240;2023-05-02T04:06:14;10.30;;;9.40;;
6517;SDS011;3292;48.944;9.240;2023-05-02T04:08:42;10.23;;;9.07;;
6517;SDS011;3292;48.944;9.240;2023-05-02T04:11:08;10.90;;;9.83;;
6517;SDS011;3292;48.944;9.240;2023-05-02T04:13:35;11.10;;;10.10;;
6517;SDS011;3292;48.944;9.240;2023-05-02T04:16:02;11.10;;;10.00;;
6517;SDS011;3292;48.944;9.240;2023-05-02T04:18:30;11.43;;;10.23;;
6517;SDS011;3292;48.944;9.240;2023-05-02T04:20:57;11.40;;;10.20;;
6517;SDS011;3292;48.944;9.240;2023-05-02T04:23:24;11.40;;;10.30;;
6517;SDS011;3292;48.944;9.240;2023-05-02T04:25:51;10.33;;;9.33;;
6517;SDS011;3292;48.944;9.240;2023-05-02T04:28:19;10.53;;;9.63;;
6517;SDS011;3292;48.944;9.240;2023-05-02T04:30:46;10.60;;;9.50;;
6517;SDS011;3292;48.944;9.240;2023-05-02T04:33:13;10.53;;;9.63;;
6517;SDS011;3292;48.944;9.240;2023-05-02T04:35:41;11.70;;;10.50;;
6517;SDS011;3292;48.944;9.240;2023-05-02T04:38:08;11.30;;;10.20;;
6517;SDS011;3292;48.944;9.240;2023-05-02T04:40:35;10.43;;;9.43;;
6517;SDS011;3292;48.944;9.240;2023-05-02T04:43:02;10.27;;;9.27;;
6517;SDS011;3292;48.944;9.240;2023-05-02T04:45:28;10.33;;;9.33;;
6517;SDS011;3292;48.944;9.240;2023-05-02T04:47:56;11.07;;;9.97;;
6517;SDS011;3292;48.944;9.240;2023-05-02T04:50:23;10.73;;;9.73;;
6517;SDS011;3292;48.944;9.240;2023-05-02T04:52:51;10.80;;;9.70;;
6517;SDS011;3292;48.944;9.240;2023-05-02T04:55:18;10.73;;;9.67;;
6517;SDS011;3292;48.944;9.240;2023-05-02T04:57:45;10.67;;;9.60;;
6517;SDS011;3292;48.944;9.240;2023-05-02T05:00:12;9.70;;;8.90;;
6517;SDS011;3292;48.944;9.240;2023-05-02T05:02:39;10.17;;;9.27;;
6517;SDS011;3292;48.944;9.240;2023-05-02T05:05:07;10.07;;;9.03;;
6517;SDS011;3292;48.944;9.240;2023-05-02T05:07:34;10.70;;;9.77;;
6517;SDS011;3292;48.944;9.240;2023-05-02T05:10:02;10.20;;;9.30;;
6517;SDS011;3292;48.944;9.240;2023-05-02T05:12:29;10.43;;;9.47;;
6517;SDS011;3292;48.944;9.240;2023-05-02T05:14:55;13.23;;;9.07;;
6517;SDS011;3292;48.944;9.240;2023-05-02T05:17:22;10.10;;;9.20;;
6517;SDS011;3292;48.944;9.240;2023-05-02T05:19:49;10.50;;;9.60;;
6517;SDS011;3292;48.944;9.240;2023-05-02T05:22:16;10.63;;;9.53;;
6517;SDS011;3292;48.944;9.240;2023-05-02T05:24:49;10.90;;;9.63;;
6517;SDS011;3292;48.944;9.240;2023-05-02T05:27:18;11.17;;;10.07;;
6517;SDS011;3292;48.944;9.240;2023-05-02T05:29:45;10.93;;;9.83;;
6517;SDS011;3292;48.944;9.240;2023-05-02T05:32:12;11.03;;;9.93;;
6517;SDS011;3292;48.944;9.240;2023-05-02T05:34:39;10.60;;;9.60;;
6517;SDS011;3292;48.944;9.240;2023-05-02T05:37:05;11.40;;;10.23;;
6517;SDS011;3292;48.944;9.240;2023-05-02T05:39:32;12.27;;;10.33;;
6517;SDS011;3292;48.944;9.240;2023-05-02T05:41:59;15.40;;;9.77;;
6517;SDS011;3292;48.944;9.240;2023-05-02T05:44:27;11.57;;;9.80;;
6517;SDS011;3292;48.944;9.240;2023-05-02T05:46:55;11.20;;;10.07;;
6517;SDS011;3292;48.944;9.240;2023-05-02T05:49:22;12.70;;;11.13;;
6517;SDS011;3292;48.944;9.240;2023-05-02T05:51:49;12.13;;;10.20;;
6517;SDS011;3292;48.944;9.240;2023-05-02T05:54:16;10.57;;;9.40;;
6517;SDS011;3292;48.944;9.240;2023-05-02T05:56:43;10.47;;;9.47;;
6517;SDS011;3292;48.944;9.240;2023-05-02T05:59:11;9.73;;;8.83;;
6517;SDS011;3292;48.944;9.240;2023-05-02T06:01:39;10.80;;;9.80;;
6517;SDS011;3292;48.944;9.240;2023-05-02T06:04:06;11.07;;;9.73;;
6517;SDS011;3292;48.944;9.240;2023-05-02T06:06:33;10.87;;;9.77;;
6517;SDS011;3292;48.944;9.240;2023-05-02T06:09:00;10.07;;;9.17;;
6517;SDS011;3292;48.944;9.240;2023-05-02T06:11:27;10.27;;;9.20;;
6517;SDS011;3292;48.944;9.240;2023-05-02T06:13:54;10.00;;;9.00;;
6517;SDS011;3292;48.944;9.240;2023-05-02T06:16:20;11.27;;;10.03;;
6517;SDS011;3292;48.944;9.240;2023-05-02T06:18:49;10.33;;;9.17;;
6517;SDS011;3292;48.944;9.240;2023-05-02T06:21:17;9.50;;;8.63;;
6517;SDS011;3292;48.944;9.240;2023-05-02T06:23:43;10.73;;;9.20;;
6517;SDS011;3292;48.944;9.240;2023-05-02T06:26:11;10.37;;;8.97;;
6517;SDS011;3292;48.944;9.240;2023-05-02T06:28:38;9.30;;;8.40;;
6517;SDS011;3292;48.944;9.240;2023-05-02T06:31:05;10.80;;;9.10;;
6517;SDS011;3292;48.944;9.240;2023-05-02T06:33:32;12.87;;;8.73;;
6517;SDS011;3292;48.944;9.240;2023-05-02T06:36:00;13.43;;;9.67;;
6517;SDS011;3292;48.944;9.240;2023-05-02T06:38:28;10.43;;;9.00;;
6517;SDS011;3292;48.944;9.240;2023-05-02T06:40:55;9.43;;;8.50;;
6517;SDS011;3292;48.944;9.240;2023-05-02T06:43:21;10.40;;;9.40;;
6517;SDS011;3292;48.944;9.240;2023-05-02T06:45:51;10.60;;;8.80;;
6517;SDS011;3292;48.944;9.240;2023-05-02T06:48:18;11.83;;;9.30;;
6517;SDS011;3292;48.944;9.240;2023-05-02T06:50:45;11.20;;;9.70;;
6517;SDS011;3292;48.944;9.240;2023-05-02T06:53:13;13.03;;;9.73;;
6517;SDS011;3292;48.944;9.240;2023-05-02T06:55:40;11.50;;;10.27;;
6517;SDS011;3292;48.944;9.240;2023-05-02T06:58:07;11.63;;;9.40;;
6517;SDS011;3292;48.944;9.240;2023-05-02T07:00:34;11.70;;;10.60;;
6517;SDS011;3292;48.944;9.240;2023-05-02T07:03:01;11.40;;;10.30;;
6517;SDS011;3292;48.944;9.240;2023-05-02T07:05:28;11.93;;;10.73;;
6517;SDS011;3292;48.944;9.240;2023-05-02T07:07:55;11.63;;;10.50;;
6517;SDS011;3292;48.944;9.240;2023-05-02T07:10:23;12.00;;;10.80;;
6517;SDS011;3292;48.944;9.240;2023-05-02T07:12:50;12.00;;;10.90;;
6517;SDS011;3292;48.944;9.240;2023-05-02T07:15:17;12.80;;;10.43;;
6517;SDS011;3292;48.944;9.240;2023-05-02T07:17:44;11.40;;;10.30;;
6517;SDS011;3292;48.944;9.240;2023-05-02T07:20:11;12.20;;;11.07;;
6517;SDS011;3292;48.944;9.240;2023-05-02T07:22:39;11.03;;;10.03;;
6517;SDS011;3292;48.944;9.240;2023-05-02T07:25:06;12.10;;;10.83;;
6517;SDS011;3292;48.944;9.240;2023-05-02T07:27:35;11.47;;;10.47;;
6517;SDS011;3292;48.944;9.240;2023-05-02T07:30:02;11.43;;;10.30;;
6517;SDS011;3292;48.944;9.240;2023-05-02T07:32:29;12.60;;;11.20;;
6517;SDS011;3292;48.944;9.240;2023-05-02T07:34:56;12.83;;;11.63;;
6517;SDS011;3292;48.944;9.240;2023-05-02T07:37:23;13.43;;;11.47;;
6517;SDS011;3292;48.944;9.240;2023-05-02T07:39:50;12.23;;;10.73;;
6517;SDS011;3292;48.944;9.240;2023-05-02T07:42:17;14.33;;;11.67;;
6517;SDS011;3292;48.944;9.240;2023-05-02T07:44:45;14.30;;;12.73;;
6517;SDS011;3292;48.944;9.240;2023-05-02T07:47:12;12.90;;;11.73;;
6517;SDS011;3292;48.944;9.240;2023-05-02T07:49:39;12.80;;;11.50;;
6517;SDS011;3292;48.944;9.240;2023-05-02T07:52:05;13.83;;;11.80;;
6517;SDS011;3292;48.944;9.240;2023-05-02T07:54:32;12.50;;;11.30;;
6517;SDS011;3292;48.944;9.240;2023-05-02T07:56:59;12.77;;;11.60;;
6517;SDS011;3292;48.944;9.240;2023-05-02T07:59:28;14.10;;;12.80;;
6517;SDS011;3292;48.944;9.240;2023-05-02T08:01:57;14.33;;;13.03;;
6517;SDS011;3292;48.944;9.240;2023-05-02T08:04:24;14.47;;;13.17;;
6517;SDS011;3292;48.944;9.240;2023-05-02T08:06:51;14.60;;;13.27;;
6517;SDS011;3292;48.944;9.240;2023-05-02T08:09:17;15.20;;;13.80;;
6517;SDS011;3292;48.944;9.240;2023-05-02T08:11:44;17.63;;;15.83;;
6517;SDS011;3292;48.944;9.240;2023-05-02T08:14:11;18.23;;;16.43;;
6517;SDS011;3292;48.944;9.240;2023-05-02T08:16:38;17.97;;;16.13;;
6517;SDS011;3292;48.944;9.240;2023-05-02T08:19:07;18.30;;;16.47;;
6517;SDS011;3292;48.944;9.240;2023-05-02T08:21:34;17.90;;;16.07;;
6517;SDS011;3292;48.944;9.240;2023-05-02T08:24:00;18.93;;;17.13;;
6517;SDS011;3292;48.944;9.240;2023-05-02T08:26:27;19.43;;;17.63;;
6517;SDS011;3292;48.944;9.240;2023-05-02T08:28:54;18.50;;;16.70;;
6517;SDS011;3292;48.944;9.240;2023-05-02T08:31:21;18.23;;;16.43;;
6517;SDS011;3292;48.944;9.240;2023-05-02T08:33:48;18.60;;;16.77;;
6517;SDS011;3292;48.944;9.240;2023-05-02T08:36:16;18.70;;;16.57;;
6517;SDS011;3292;48.944;9.240;2023-05-02T08:38:43;17.63;;;15.83;;
6517;SDS011;3292;48.944;9.240;2023-05-02T08:41:11;18.20;;;16.17;;
6517;SDS011;3292;48.944;9.240;2023-05-02T08:43:39;19.97;;;17.97;;
6517;SDS011;3292;48.944;9.240;2023-05-02T08:46:06;19.30;;;17.40;;
6517;SDS011;3292;48.944;9.240;2023-05-02T08:48:34;19.43;;;17.53;;
6517;SDS011;3292;48.944;9.240;2023-05-02T08:51:02;18.83;;;17.03;;
6517;SDS011;3292;48.944;9.240;2023-05-02T08:53:32;18.90;;;17.03;;
6517;SDS011;3292;48.944;9.240;2023-05-02T08:56:00;18.40;;;16.60;;
6517;SDS011;3292;48.944;9.240;2023-05-02T08:58:27;20.20;;;18.20;;
6517;SDS011;3292;48.944;9.240;2023-05-02T09:00:55;20.20;;;16.97;;
6517;SDS011;3292;48.944;9.240;2023-05-02T09:03:27;17.60;;;15.90;;
6517;SDS011;3292;48.944;9.240;2023-05-02T09:06:01;18.00;;;16.20;;
6517;SDS011;3292;48.944;9.240;2023-05-02T09:08:33;17.73;;;15.93;;
6517;SDS011;3292;48.944;9.240;2023-05-02T09:11:00;18.00;;;16.20;;
6517;SDS011;3292;48.944;9.240;2023-05-02T09:13:31;18.80;;;17.00;;
6517;SDS011;3292;48.944;9.240;2023-05-02T09:16:00;18.10;;;16.33;;
6517;SDS011;3292;48.944;9.240;2023-05-02T09:18:28;19.60;;;17.37;;
6517;SDS011;3292;48.944;9.240;2023-05-02T09:20:57;18.80;;;16.93;;
6517;SDS011;3292;48.944;9.240;2023-05-02T09:23:33;19.30;;;17.40;;
6517;SDS011;3292;48.944;9.240;2023-05-02T09:26:01;17.90;;;16.13;;
6517;SDS011;3292;48.944;9.240;2023-05-02T09:28:39;18.77;;;16.60;;
6517;SDS011;3292;48.944;9.240;2023-05-02T09:31:07;17.63;;;16.00;;
6517;SDS011;3292;48.944;9.240;2023-05-02T09:33:36;17.40;;;15.60;;
6517;SDS011;3292;48.944;9.240;2023-05-02T09:36:04;18.47;;;14.47;;
6517;SDS011;3292;48.944;9.240;2023-05-02T09:38:33;16.30;;;13.97;;
6517;SDS011;3292;48.944;9.240;2023-05-02T09:41:00;15.97;;;14.47;;
6517;SDS011;3292;48.944;9.240;2023-05-02T09:43:28;16.70;;;15.10;;
6517;SDS011;3292;48.944;9.240;2023-05-02T09:45:56;16.97;;;15.17;;
6517;SDS011;3292;48.944;9.240;2023-05-02T09:48:25;16.53;;;14.93;;
6517;SDS011;3292;48.944;9.240;2023-05-02T09:50:52;15.73;;;14.03;;
6517;SDS011;3292;48.944;9.240;2023-05-02T09:53:20;15.73;;;14.20;;
6517;SDS011;3292;48.944;9.240;2023-05-02T09:55:48;17.53;;;15.77;;
6517;SDS011;3292;48.944;9.240;2023-05-02T09:58:25;16.83;;;15.23;;
6517;SDS011;3292;48.944;9.240;2023-05-02T10:00:52;16.77;;;15.17;;
6517;SDS011;3292;48.944;9.240;2023-05-02T10:03:18;16.50;;;14.90;;
6517;SDS011;3292;48.944;9.240;2023-05-02T10:05:48;16.27;;;14.73;;
6517;SDS011;3292;48.944;9.240;2023-05-02T10:08:17;16.17;;;14.47;;
6517;SDS011;3292;48.944;9.240;2023-05-02T10:10:46;15.33;;;13.90;;
6517;SDS011;3292;48.944;9.240;2023-05-02T10:13:18;16.00;;;14.50;;
6517;SDS011;3292;48.944;9.240;2023-05-02T10:15:48;15.63;;;14.23;;
6517;SDS011;3292;48.944;9.240;2023-05-02T10:18:20;14.27;;;12.87;;
6517;SDS011;3292;48.944;9.240;2023-05-02T10:20:55;15.73;;;14.17;;
6517;SDS011;3292;48.944;9.240;2023-05-02T10:23:26;16.00;;;14.43;;
6517;SDS011;3292;48.944;9.240;2023-05-02T10:25:56;16.80;;;15.30;;
6517;SDS011;3292;48.944;9.240;2023-05-02T10:28:23;15.63;;;14.23;;
6517;SDS011;3292;48.944;9.240;2023-05-02T10:30:51;17.03;;;15.33;;
6517;SDS011;3292;48.944;9.240;2023-05-02T10:33:19;16.97;;;15.33;;
6517;SDS011;3292;48.944;9.240;2023-05-02T10:35:46;17.33;;;15.77;;
6517;SDS011;3292;48.944;9.240;2023-05-02T10:38:13;18.63;;;15.30;;
6517;SDS011;3292;48.944;9.240;2023-05-02T10:40:46;16.30;;;14.60;;
6517;SDS011;3292;48.944;9.240;2023-05-02T10:43:21;14.57;;;13.17;;
6517;SDS011;3292;48.944;9.240;2023-05-02T10:45:50;15.57;;;14.10;;
6517;SDS011;3292;48.944;9.240;2023-05-02T10:48:18;14.03;;;12.53;;
6517;SDS011;3292;48.944;9.240;2023-05-02T10:50:47;14.77;;;13.27;;
6517;SDS011;3292;48.944;9.240;2023-05-02T10:53:25;16.20;;;14.67;;
6517;SDS011;3292;48.944;9.240;2023-05-02T10:56:12;16.40;;;14.80;;
6517;SDS011;3292;48.944;9.240;2023-05-02T10:58:46;15.47;;;13.83;;
6517;SDS011;3292;48.944;9.240;2023-05-02T11:01:31;16.70;;;15.20;;
6517;SDS011;3292;48.944;9.240;2023-05-02T11:04:01;16.87;;;15.27;;
6517;SDS011;3292;48.944;9.240;2023-05-02T11:06:28;17.13;;;15.63;;
6517;SDS011;3292;48.944;9.240;2023-05-02T11:11:57;16.03;;;14.43;;
6517;SDS011;3292;48.944;9.240;2023-05-02T11:14:43;17.00;;;15.40;;
6517;SDS011;3292;48.944;9.240;2023-05-02T11:17:12;17.40;;;15.60;;
6517;SDS011;3292;48.944;9.240;2023-05-02T11:22:52;18.97;;;17.07;;
6517;SDS011;3292;48.944;9.240;2023-05-02T11:25:33;19.63;;;17.73;;
6517;SDS011;3292;48.944;9.240;2023-05-02T11:28:02;17.60;;;15.90;;
6517;SDS011;3292;48.944;9.240;2023-05-02T11:30:42;16.33;;;14.73;;
6517;SDS011;3292;48.944;9.240;2023-05-02T11:33:18;17.00;;;15.37;;
6517;SDS011;3292;48.944;9.240;2023-05-02T11:35:45;15.97;;;14.37;;
6517;SDS011;3292;48.944;9.240;2023-05-02T11:38:14;15.27;;;13.80;;
6517;SDS011;3292;48.944;9.240;2023-05-02T11:40:49;17.53;;;15.83;;
6517;SDS011;3292;48.944;9.240;2023-05-02T11:43:18;16.70;;;15.20;;
6517;SDS011;3292;48.944;9.240;2023-05-02T11:45:47;18.27;;;16.40;;
6517;SDS011;3292;48.944;9.240;2023-05-02T11:48:15;20.00;;;18.20;;
6517;SDS011;3292;48.944;9.240;2023-05-02T11:50:44;20.37;;;18.50;;
6517;SDS011;3292;48.944;9.240;2023-05-02T11:53:12;19.97;;;17.80;;
6517;SDS011;3292;48.944;9.240;2023-05-02T11:55:43;23.70;;;21.20;;
6517;SDS011;3292;48.944;9.240;2023-05-02T11:58:11;24.83;;;22.33;;
6517;SDS011;3292;48.944;9.240;2023-05-02T12:00:39;27.27;;;23.37;;
6517;SDS011;3292;48.944;9.240;2023-05-02T12:03:08;26.13;;;23.37;;
6517;SDS011;3292;48.944;9.240;2023-05-02T12:05:43;22.17;;;19.87;;
6517;SDS011;3292;48.944;9.240;2023-05-02T12:08:16;23.90;;;20.67;;
6517;SDS011;3292;48.944;9.240;2023-05-02T12:10:48;24.17;;;21.67;;
6517;SDS011;3292;48.944;9.240;2023-05-02T12:13:16;25.63;;;22.93;;
6517;SDS011;3292;48.944;9.240;2023-05-02T12:15:45;27.67;;;24.77;;
6517;SDS011;3292;48.944;9.240;2023-05-02T12:18:15;29.53;;;26.33;;
6517;SDS011;3292;48.944;9.240;2023-05-02T12:20:43;25.30;;;22.70;;
6517;SDS011;3292;48.944;9.240;2023-05-02T12:23:11;27.73;;;24.63;;
6517;SDS011;3292;48.944;9.240;2023-05-02T12:25:38;29.73;;;24.40;;
6517;SDS011;3292;48.944;9.240;2023-05-02T12:28:05;28.53;;;23.87;;
6517;SDS011;3292;48.944;9.240;2023-05-02T12:30:33;26.40;;;23.43;;
6517;SDS011;3292;48.944;9.240;2023-05-02T12:33:02;31.67;;;25.50;;
6517;SDS011;3292;48.944;9.240;2023-05-02T12:35:32;26.07;;;23.27;;
6517;SDS011;3292;48.944;9.240;2023-05-02T12:38:09;26.80;;;23.33;;
6517;SDS011;3292;48.944;9.240;2023-05-02T12:40:37;25.13;;;22.47;;
6517;SDS011;3292;48.944;9.240;2023-05-02T12:43:11;23.53;;;20.27;;
6517;SDS011;3292;48.944;9.240;2023-05-02T12:45:37;22.13;;;19.83;;
6517;SDS011;3292;48.944;9.240;2023-05-02T12:48:21;23.33;;;20.83;;
6517;SDS011;3292;48.944;9.240;2023-05-02T12:50:53;23.57;;;20.80;;
6517;SDS011;3292;48.944;9.240;2023-05-02T12:56:06;21.73;;;18.43;;
6517;SDS011;3292;48.944;9.240;2023-05-02T12:58:40;21.23;;;19.00;;
6517;SDS011;3292;48.944;9.240;2023-05-02T13:01:08;22.20;;;17.77;;
6517;SDS011;3292;48.944;9.240;2023-05-02T13:03:36;20.57;;;18.23;;
6517;SDS011;3292;48.944;9.240;2023-05-02T13:06:04;22.17;;;18.57;;
6517;SDS011;3292;48.944;9.240;2023-05-02T13:08:31;20.43;;;18.33;;
6517;SDS011;3292;48.944;9.240;2023-05-02T13:10:58;18.63;;;16.73;;
6517;SDS011;3292;48.944;9.240;2023-05-02T13:13:25;17.93;;;16.13;;
6517;SDS011;3292;48.944;9.240;2023-05-02T13:15:52;18.53;;;16.73;;
6517;SDS011;3292;48.944;9.240;2023-05-02T13:18:19;17.13;;;15.37;;
6517;SDS011;3292;48.944;9.240;2023-05-02T13:20:46;17.50;;;15.70;;
6517;SDS011;3292;48.944;9.240;2023-05-02T13:23:14;15.73;;;14.30;;
6517;SDS011;3292;48.944;9.240;2023-05-02T13:25:41;15.53;;;13.93;;
6517;SDS011;3292;48.944;9.240;2023-05-02T13:28:08;14.73;;;13.23;;
6517;SDS011;3292;48.944;9.240;2023-05-02T13:30:35;15.00;;;13.33;;
6517;SDS011;3292;48.944;9.240;2023-05-02T13:33:02;15.60;;;13.40;;
6517;SDS011;3292;48.944;9.240;2023-05-02T13:35:29;14.03;;;12.63;;
6517;SDS011;3292;48.944;9.240;2023-05-02T13:37:55;15.00;;;13.27;;
6517;SDS011;3292;48.944;9.240;2023-05-02T13:40:23;12.33;;;11.13;;
6517;SDS011;3292;48.944;9.240;2023-05-02T13:42:51;12.43;;;11.13;;
6517;SDS011;3292;48.944;9.240;2023-05-02T13:45:17;14.33;;;11.40;;
6517;SDS011;3292;48.944;9.240;2023-05-02T13:47:45;13.13;;;11.93;;
6517;SDS011;3292;48.944;9.240;2023-05-02T13:50:11;13.20;;;11.80;;
6517;SDS011;3292;48.944;9.240;2023-05-02T13:52:38;11.60;;;10.43;;
6517;SDS011;3292;48.944;9.240;2023-05-02T13:55:05;11.23;;;10.13;;
6517;SDS011;3292;48.944;9.240;2023-05-02T13:57:34;12.60;;;11.30;;
6517;SDS011;3292;48.944;9.240;2023-05-02T14:00:01;11.90;;;10.80;;
6517;SDS011;3292;48.944;9.240;2023-05-02T14:02:28;11.27;;;10.20;;
6517;SDS011;3292;48.944;9.240;2023-05-02T14:04:55;11.13;;;10.03;;
6517;SDS011;3292;48.944;9.240;2023-05-02T14:07:22;11.13;;;9.80;;
6517;SDS011;3292;48.944;9.240;2023-05-02T14:09:49;10.73;;;9.73;;
6517;SDS011;3292;48.944;9.240;2023-05-02T14:12:16;11.40;;;10.13;;
6517;SDS011;3292;48.944;9.240;2023-05-02T14:14:44;10.90;;;9.90;;
6517;SDS011;3292;48.944;9.240;2023-05-02T14:17:11;10.37;;;9.40;;
6517;SDS011;3292;48.944;9.240;2023-05-02T14:19:38;10.53;;;9.43;;
6517;SDS011;3292;48.944;9.240;2023-05-02T14:22:04;9.30;;;8.43;;
6517;SDS011;3292;48.944;9.240;2023-05-02T14:24:31;9.13;;;8.00;;
6517;SDS011;3292;48.944;9.240;2023-05-02T14:26:58;9.60;;;8.70;;
6517;SDS011;3292;48.944;9.240;2023-05-02T14:29:25;9.47;;;8.60;;
6517;SDS011;3292;48.944;9.240;2023-05-02T14:31:53;9.50;;;8.53;;
6517;SDS011;3292;48.944;9.240;2023-05-02T14:34:20;8.70;;;7.80;;
6517;SDS011;3292;48.944;9.240;2023-05-02T14:36:50;8.17;;;7.43;;
6517;SDS011;3292;48.944;9.240;2023-05-02T14:39:17;10.27;;;8.80;;
6517;SDS011;3292;48.944;9.240;2023-05-02T14:41:44;8.63;;;7.67;;
6517;SDS011;3292;48.944;9.240;2023-05-02T14:44:11;8.70;;;7.87;;
6517;SDS011;3292;48.944;9.240;2023-05-02T14:46:38;8.23;;;7.10;;
6517;SDS011;3292;48.944;9.240;2023-05-02T14:49:06;7.57;;;6.50;;
6517;SDS011;3292;48.944;9.240;2023-05-02T14:51:35;8.77;;;7.97;;
6517;SDS011;3292;48.944;9.240;2023-05-02T14:54:03;8.83;;;7.93;;
6517;SDS011;3292;48.944;9.240;2023-05-02T14:56:30;9.43;;;8.43;;
6517;SDS011;3292;48.944;9.240;2023-05-02T14:58:57;8.10;;;6.83;;
6517;SDS011;3292;48.944;9.240;2023-05-02T15:01:24;8.07;;;7.07;;
6517;SDS011;3292;48.944;9.240;2023-05-02T15:03:51;7.83;;;5.47;;
6517;SDS011;3292;48.944;9.240;2023-05-02T15:06:21;7.40;;;6.70;;
6517;SDS011;3292;48.944;9.240;2023-05-02T15:08:48;7.90;;;7.00;;
6517;SDS011;3292;48.944;9.240;2023-05-02T15:11:15;7.40;;;6.73;;
6517;SDS011;3292;48.944;9.240;2023-05-02T15:13:41;7.17;;;6.47;;